Time;durP1;ratioP1;P1;durP2;ratioP2;P2;SDS_P1;SDS_P2;PMS_P1;PMS_P2;Temp;Humidity;BMP_temperature;BMP_pressure;BME280_temperature;BME280_humidity;BME280_pressure;Samples;Min_cycle;Max_cycle;Signal;HPM_P1;HPM_P2
2021/06/10 00:00:51;;;;;;;10.80;7.40;;;;;;;16.87;63.37;99433.72;5103411;28;20059;-54
2021/06/10 00:03:17;;;;;;;7.03;5.53;;;;;;;16.73;63.72;99424.47;5111077;28;20493;-53
2021/06/10 00:05:43;;;;;;;13.85;9.05;;;;;;;16.62;63.41;99399.53;5111330;28;20031;-53
2021/06/10 00:08:10;;;;;;;14.50;8.60;;;;;;;16.84;63.32;99423.25;5111096;28;20024;-56
2021/06/10 00:10:39;;;;;;;9.38;6.85;;;;;;;16.91;63.17;99429.69;5107355;28;20073;-52
2021/06/10 00:13:04;;;;;;;11.68;5.95;;;;;;;16.66;63.50;99408.13;5110922;28;20112;-50
2021/06/10 00:15:32;;;;;;;16.20;9.48;;;;;;;16.76;63.54;99421.47;5110696;28;20040;-52
2021/06/10 00:17:59;;;;;;;8.85;5.85;;;;;;;16.66;63.88;99427.06;5110777;28;20039;-55
2021/06/10 00:20:27;;;;;;;11.00;6.40;;;;;;;16.69;63.74;99426.72;5102125;28;20093;-53
2021/06/10 00:22:55;;;;;;;15.77;10.65;;;;;;;16.77;63.23;99425.84;5102937;28;20046;-53
2021/06/10 00:25:25;;;;;;;13.48;7.15;;;;;;;16.59;62.85;99380.09;5110899;28;20032;-54
2021/06/10 00:27:50;;;;;;;9.32;6.72;;;;;;;16.73;63.31;99424.47;5094813;28;20126;-52
2021/06/10 00:30:17;;;;;;;17.63;11.05;;;;;;;16.68;63.31;99426.88;5109230;28;20114;-56
2021/06/10 00:32:45;;;;;;;10.77;7.25;;;;;;;16.56;63.40;99407.47;5099909;28;20142;-55
2021/06/10 00:35:12;;;;;;;14.15;9.98;;;;;;;16.56;63.60;99412.88;5109915;28;20031;-56
2021/06/10 00:37:37;;;;;;;13.25;9.57;;;;;;;16.58;63.61;99437.88;5110588;28;20081;-53
2021/06/10 00:40:05;;;;;;;15.27;9.95;;;;;;;16.59;63.58;99426.91;5109990;28;20027;-56
2021/06/10 00:42:30;;;;;;;17.73;10.35;;;;;;;16.23;64.00;99386.78;5107698;28;20432;-56
2021/06/10 00:44:56;;;;;;;20.05;13.98;;;;;;;16.43;64.35;99422.38;5108804;28;20092;-53
2021/06/10 00:47:21;;;;;;;14.75;9.65;;;;;;;16.41;64.32;99419.00;5110057;28;20075;-54
2021/06/10 00:49:47;;;;;;;14.13;10.35;;;;;;;16.43;64.33;99416.13;5110168;28;20031;-53
2021/06/10 00:52:13;;;;;;;18.95;11.32;;;;;;;16.52;63.86;99422.34;5103130;28;20032;-53
2021/06/10 00:54:39;;;;;;;12.05;8.55;;;;;;;16.13;63.93;99375.34;5099336;28;20046;-55
2021/06/10 00:57:05;;;;;;;13.88;9.77;;;;;;;16.53;63.67;99407.84;5109657;28;20028;-56
2021/06/10 00:59:32;;;;;;;15.05;9.80;;;;;;;16.57;63.62;99414.56;5109653;28;20032;-50
2021/06/10 01:01:57;;;;;;;8.93;7.60;;;;;;;16.42;64.02;99418.00;5099358;28;20554;-52
2021/06/10 01:04:22;;;;;;;11.90;8.05;;;;;;;16.50;63.50;99401.75;5110138;28;20045;-49
2021/06/10 01:06:59;;;;;;;11.05;7.35;;;;;;;16.62;63.29;99410.34;5109550;28;20027;-52
2021/06/10 01:09:44;;;;;;;19.02;12.02;;;;;;;16.03;63.64;99346.63;5109240;28;20093;-54
2021/06/10 01:12:33;;;;;;;8.52;6.40;;;;;;;16.45;63.99;99423.06;5102521;28;20051;-50
2021/06/10 01:15:11;;;;;;;21.42;12.18;;;;;;;16.49;63.36;99419.00;5110054;28;20054;-54
2021/06/10 01:17:44;;;;;;;11.63;6.10;;;;;;;16.35;63.78;99420.53;5109609;28;20131;-50
2021/06/10 01:20:16;;;;;;;13.45;9.90;;;;;;;16.35;63.64;99406.16;5110415;28;20118;-55
2021/06/10 01:22:43;;;;;;;10.77;7.65;;;;;;;16.41;63.82;99415.47;5107839;28;20034;-53
2021/06/10 01:25:33;;;;;;;8.73;6.50;;;;;;;16.46;63.63;99418.47;5105950;28;20043;-53
2021/06/10 01:28:03;;;;;;;10.48;6.45;;;;;;;16.46;63.08;99413.94;5094391;28;20491;-54
2021/06/10 01:30:35;;;;;;;8.68;5.90;;;;;;;16.43;63.21;99414.28;5108152;28;20605;-58
2021/06/10 01:33:07;;;;;;;7.47;5.40;;;;;;;16.45;62.98;99406.84;5098429;28;20082;-55
2021/06/10 01:35:35;;;;;;;13.50;8.63;;;;;;;16.38;63.17;99407.69;5107457;28;20518;-55
2021/06/10 01:38:03;;;;;;;9.65;5.70;;;;;;;15.94;63.37;99344.97;5109476;28;20119;-52
2021/06/10 01:40:29;;;;;;;11.57;6.80;;;;;;;16.27;63.49;99404.31;5109597;28;20032;-59
2021/06/10 01:42:59;;;;;;;6.50;5.43;;;;;;;16.21;64.00;99413.13;5104437;28;20023;-54
2021/06/10 01:45:25;;;;;;;6.43;5.00;;;;;;;16.27;63.52;99408.91;5109314;28;20123;-53
2021/06/10 01:47:52;;;;;;;8.18;6.00;;;;;;;16.21;63.75;99413.13;5113544;28;20051;-51
2021/06/10 01:50:20;;;;;;;8.65;4.95;;;;;;;15.91;63.04;99346.19;5112322;28;20054;-54
2021/06/10 01:52:47;;;;;;;8.30;5.45;;;;;;;16.47;62.39;99412.06;5113192;28;20074;-53
2021/06/10 01:55:15;;;;;;;12.57;8.20;;;;;;;16.41;62.62;99413.63;5110268;28;20061;-53
2021/06/10 01:57:42;;;;;;;12.27;6.97;;;;;;;16.23;63.01;99407.56;5113535;28;20687;-55
2021/06/10 02:00:11;;;;;;;8.05;6.00;;;;;;;16.24;63.11;99414.66;5113866;28;20095;-55
2021/06/10 02:02:38;;;;;;;10.63;7.40;;;;;;;16.15;63.28;99417.34;5113257;28;20069;-56
2021/06/10 02:05:10;;;;;;;7.88;6.13;;;;;;;15.70;63.69;99348.53;5100553;28;20383;-51
2021/06/10 02:07:40;;;;;;;8.30;4.90;;;;;;;16.05;63.98;99424.78;5111805;28;20406;-55
2021/06/10 02:10:09;;;;;;;11.07;7.60;;;;;;;16.14;63.32;99410.25;5112043;28;20574;-51
2021/06/10 02:12:36;;;;;;;9.85;6.15;;;;;;;16.10;63.10;99403.50;5094738;28;20036;-57
2021/06/10 02:15:04;;;;;;;15.30;8.95;;;;;;;15.72;62.71;99322.19;5105787;28;20040;-56
2021/06/10 02:17:30;;;;;;;9.32;6.57;;;;;;;16.26;62.63;99401.81;5110729;28;20114;-57
2021/06/10 02:19:56;;;;;;;8.95;5.50;;;;;;;16.10;63.30;99414.31;5113038;28;20110;-54
2021/06/10 02:22:21;;;;;;;8.70;5.90;;;;;;;16.03;63.78;99421.41;5112774;28;20034;-51
2021/06/10 02:24:51;;;;;;;6.80;4.72;;;;;;;16.06;63.64;99415.66;5111644;28;20032;-51
2021/06/10 02:27:17;;;;;;;7.53;5.78;;;;;;;15.84;63.29;99388.31;5108636;28;20028;-55
2021/06/10 02:29:44;;;;;;;7.88;5.13;;;;;;;15.99;63.83;99417.38;5112530;28;20346;-53
2021/06/10 02:32:10;;;;;;;9.60;6.80;;;;;;;16.00;63.81;99419.06;5112612;28;20058;-52
2021/06/10 02:34:36;;;;;;;14.48;9.32;;;;;;;16.13;63.40;99422.06;5112361;28;20117;-52
2021/06/10 02:37:02;;;;;;;7.82;5.05;;;;;;;16.09;63.28;99426.13;5099569;28;20445;-56
2021/06/10 02:39:29;;;;;;;9.50;6.88;;;;;;;15.96;63.28;99396.13;5108823;28;20032;-51
2021/06/10 02:41:56;;;;;;;7.75;5.55;;;;;;;16.14;62.91;99421.06;5112471;28;20031;-53
2021/06/10 02:44:26;;;;;;;10.30;7.00;;;;;;;15.98;63.27;99418.38;5112289;28;20081;-55
2021/06/10 02:46:53;;;;;;;9.07;6.35;;;;;;;16.07;63.09;99414.66;5105399;28;20040;-54
2021/06/10 02:49:20;;;;;;;11.68;6.05;;;;;;;16.10;62.84;99408.09;5108207;28;20118;-54
2021/06/10 02:51:46;;;;;;;9.85;6.10;;;;;;;16.04;62.91;99415.00;5112736;28;20036;-49
2021/06/10 02:54:17;;;;;;;10.32;6.35;;;;;;;15.64;63.53;99366.22;5112475;28;20053;-48
2021/06/10 02:56:43;;;;;;;10.30;7.47;;;;;;;15.87;63.44;99406.03;5109669;28;20043;-53
2021/06/10 02:59:09;;;;;;;9.98;6.57;;;;;;;15.70;64.03;99383.59;5106287;28;20108;-52
2021/06/10 03:01:38;;;;;;;9.50;5.80;;;;;;;15.77;63.66;99371.94;5111631;28;20386;-55
2021/06/10 03:04:05;;;;;;;6.57;4.93;;;;;;;15.83;64.28;99397.41;5111553;28;20189;-52
2021/06/10 03:06:32;;;;;;;9.20;5.88;;;;;;;15.93;63.67;99390.03;5110266;28;20118;-54
2021/06/10 03:08:57;;;;;;;17.45;6.95;;;;;;;16.04;63.32;99390.69;5111134;28;20376;-51
2021/06/10 03:11:24;;;;;;;8.60;5.25;;;;;;;16.03;63.39;99386.31;5111174;28;20082;-51
2021/06/10 03:13:50;;;;;;;7.97;5.75;;;;;;;15.93;63.09;99381.94;5111520;28;20414;-54
2021/06/10 03:16:18;;;;;;;7.13;5.78;;;;;;;16.12;62.71;99404.19;5094116;28;20035;-54
2021/06/10 03:18:44;;;;;;;6.95;5.40;;;;;;;16.19;62.28;99401.66;5111122;28;20036;-55
2021/06/10 03:21:09;;;;;;;5.85;5.18;;;;;;;16.20;61.83;99393.38;5110184;28;20035;-54
2021/06/10 03:23:35;;;;;;;7.90;5.45;;;;;;;16.23;61.77;99402.97;5111222;28;20122;-52
2021/06/10 03:26:03;;;;;;;7.25;5.55;;;;;;;16.25;61.52;99408.22;5111621;28;20039;-51
2021/06/10 03:28:30;;;;;;;7.78;6.05;;;;;;;15.93;62.68;99398.13;5109005;28;20399;-54
2021/06/10 03:30:56;;;;;;;10.80;5.10;;;;;;;16.01;62.63;99402.66;5110944;28;20130;-52
2021/06/10 03:33:23;;;;;;;9.70;5.72;;;;;;;15.97;62.73;99398.63;5110803;28;20110;-55
2021/06/10 03:35:50;;;;;;;8.65;5.43;;;;;;;16.00;62.90;99405.56;5111789;28;20055;-54
2021/06/10 03:38:16;;;;;;;9.30;5.55;;;;;;;15.98;62.58;99391.38;5111570;28;20447;-52
2021/06/10 03:40:44;;;;;;;7.15;5.38;;;;;;;16.02;62.76;99412.44;5109531;28;20031;-54
2021/06/10 03:43:12;;;;;;;11.02;6.85;;;;;;;15.81;62.73;99358.13;5111002;28;20039;-55
2021/06/10 03:45:39;;;;;;;6.07;5.07;;;;;;;16.20;62.19;99404.19;5111411;28;20035;-53
2021/06/10 03:48:06;;;;;;;12.07;5.70;;;;;;;16.33;61.52;99392.00;5109507;28;20026;-53
2021/06/10 03:50:33;;;;;;;14.98;8.50;;;;;;;16.33;61.83;99395.56;5109083;28;20433;-49
2021/06/10 03:52:59;;;;;;;7.20;4.82;;;;;;;16.34;62.23;99408.03;5110730;28;20093;-50
2021/06/10 03:55:25;;;;;;;11.68;6.18;;;;;;;16.35;61.29;99398.06;5111071;27;20474;-55
2021/06/10 03:57:51;;;;;;;9.02;5.30;;;;;;;16.61;61.11;99407.78;5110128;28;20031;-54
2021/06/10 04:00:17;;;;;;;8.40;6.15;;;;;;;16.64;60.57;99411.00;5106237;28;20526;-55
2021/06/10 04:02:42;;;;;;;15.73;8.40;;;;;;;16.68;60.52;99407.94;5100789;28;20084;-56
2021/06/10 04:05:08;;;;;;;10.93;5.90;;;;;;;16.44;61.04;99404.31;5111186;28;20059;-52
2021/06/10 04:07:34;;;;;;;11.15;7.20;;;;;;;16.64;60.42;99418.28;5111159;28;20028;-52
2021/06/10 04:10:00;;;;;;;8.98;6.07;;;;;;;16.54;60.69;99412.22;5109220;28;20119;-49
2021/06/10 04:12:26;;;;;;;8.55;5.57;;;;;;;16.43;60.53;99408.03;5109673;28;20087;-54
2021/06/10 04:14:51;;;;;;;12.25;7.90;;;;;;;16.28;61.56;99426.78;5110733;28;20034;-57
2021/06/10 04:17:17;;;;;;;12.20;5.93;;;;;;;16.40;61.11;99425.44;5110895;28;20066;-52
2021/06/10 04:19:43;;;;;;;10.70;6.53;;;;;;;16.41;61.20;99432.53;5108218;28;20027;-49
2021/06/10 04:22:08;;;;;;;11.73;6.78;;;;;;;16.18;61.80;99419.72;5104023;28;20119;-52
2021/06/10 04:24:34;;;;;;;13.02;7.30;;;;;;;16.01;62.77;99423.44;5109594;28;20031;-54
2021/06/10 04:27:01;;;;;;;11.60;5.80;;;;;;;16.28;62.04;99429.50;5110071;28;20130;-54
2021/06/10 04:29:27;;;;;;;8.55;7.10;;;;;;;16.30;61.78;99430.16;5109875;28;20043;-52
2021/06/10 04:31:52;;;;;;;9.05;6.43;;;;;;;16.26;62.07;99431.53;5108249;28;20771;-56
2021/06/10 04:34:19;;;;;;;8.50;5.70;;;;;;;16.25;62.44;99427.97;5110216;28;20444;-51
2021/06/10 04:36:45;;;;;;;8.98;5.63;;;;;;;16.34;62.29;99434.19;5109783;28;20035;-47
2021/06/10 04:39:10;;;;;;;11.10;5.20;;;;;;;16.14;61.89;99371.63;5109745;28;20387;-55
2021/06/10 04:41:36;;;;;;;10.45;6.57;;;;;;;16.22;61.56;99355.38;5108939;28;20036;-51
2021/06/10 04:44:02;;;;;;;10.02;6.60;;;;;;;16.91;60.18;99417.00;5096194;28;20435;-55
2021/06/10 04:46:27;;;;;;;12.82;9.10;;;;;;;16.66;60.20;99373.00;5109893;28;20027;-52
2021/06/10 04:48:55;;;;;;;7.80;6.25;;;;;;;17.04;59.63;99432.69;5109718;28;20038;-57
2021/06/10 04:51:20;;;;;;;10.40;6.57;;;;;;;17.04;60.01;99432.69;5109804;28;20028;-53
2021/06/10 04:53:46;;;;;;;10.63;5.80;;;;;;;16.99;60.17;99439.63;5097431;28;20344;-55
2021/06/10 04:56:12;;;;;;;11.18;6.90;;;;;;;16.92;60.11;99432.19;5109488;28;20032;-56
2021/06/10 04:58:38;;;;;;;7.47;6.00;;;;;;;16.60;61.33;99409.66;5109267;28;20042;-51
2021/06/10 05:01:04;;;;;;;6.38;5.75;;;;;;;16.68;61.25;99416.06;5109572;28;20494;-55
2021/06/10 05:03:29;;;;;;;9.13;4.95;;;;;;;16.66;61.67;99424.34;5109128;28;20456;-52
2021/06/10 05:05:55;;;;;;;9.40;7.05;;;;;;;16.81;61.69;99442.53;5109351;28;20024;-53
2021/06/10 05:08:20;;;;;;;8.18;5.65;;;;;;;16.33;61.79;99370.38;5109245;28;20036;-49
2021/06/10 05:10:46;;;;;;;9.65;6.15;;;;;;;16.93;60.87;99431.19;5109376;28;20093;-55
2021/06/10 05:13:11;;;;;;;12.40;7.60;;;;;;;16.73;61.88;99436.16;5108800;28;20143;-52
2021/06/10 05:15:37;;;;;;;7.93;5.38;;;;;;;16.51;63.26;99437.72;5101094;28;20035;-55
2021/06/10 05:18:03;;;;;;;9.48;5.53;;;;;;;16.31;63.83;99412.94;5106275;28;20055;-55
2021/06/10 05:20:28;;;;;;;5.90;5.28;;;;;;;16.47;63.97;99442.63;5107187;28;20027;-55
2021/06/10 05:22:53;;;;;;;9.85;6.18;;;;;;;16.69;62.58;99437.53;5107542;28;20036;-53
2021/06/10 05:25:20;;;;;;;8.80;5.88;;;;;;;16.75;61.63;99433.25;5098175;28;20482;-50
2021/06/10 05:27:45;;;;;;;17.08;9.32;;;;;;;16.13;62.96;99391.53;5106996;28;20110;-53
2021/06/10 05:30:11;;;;;;;8.85;6.43;;;;;;;16.39;63.00;99453.44;5106587;28;20213;-53
2021/06/10 05:32:36;;;;;;;6.82;6.13;;;;;;;16.40;63.10;99449.75;5108786;28;20028;-54
2021/06/10 05:35:03;;;;;;;6.35;5.65;;;;;;;16.21;64.10;99446.38;5103018;28;20047;-50
2021/06/10 05:37:28;;;;;;;8.13;5.57;;;;;;;16.06;64.68;99434.56;5109121;28;20040;-55
2021/06/10 05:39:54;;;;;;;10.55;7.40;;;;;;;16.35;63.60;99454.81;5109448;28;20487;-54
2021/06/10 05:42:19;;;;;;;8.25;6.07;;;;;;;16.21;63.90;99451.78;5109432;28;20047;-52
2021/06/10 05:44:45;;;;;;;7.55;6.30;;;;;;;16.20;64.16;99452.81;5106387;28;20042;-55
2021/06/10 05:47:11;;;;;;;10.88;6.43;;;;;;;16.31;63.56;99461.56;5091287;28;20051;-53
2021/06/10 05:49:37;;;;;;;11.07;6.43;;;;;;;16.20;64.03;99454.66;5109166;28;20036;-55
2021/06/10 05:52:03;;;;;;;9.88;7.18;;;;;;;16.30;63.07;99440.97;5108937;28;20054;-56
2021/06/10 05:54:29;;;;;;;7.65;4.95;;;;;;;16.24;62.94;99442.50;5109205;28;20032;-52
2021/06/10 05:56:55;;;;;;;10.65;6.95;;;;;;;16.42;63.02;99461.22;5096586;28;20043;-54
2021/06/10 05:59:20;;;;;;;8.82;6.82;;;;;;;16.18;63.62;99443.16;5108139;28;20027;-54
2021/06/10 06:01:46;;;;;;;9.48;6.07;;;;;;;16.33;64.13;99467.63;5108435;28;20039;-55
2021/06/10 06:04:11;;;;;;;10.00;5.60;;;;;;;16.27;64.57;99444.00;5108574;28;20036;-55
2021/06/10 06:06:38;;;;;;;8.35;5.00;;;;;;;16.46;64.37;99454.47;5105546;28;20028;-56
2021/06/10 06:09:07;;;;;;;9.13;5.43;;;;;;;16.59;63.59;99462.03;5104671;28;20452;-57
2021/06/10 06:11:33;;;;;;;10.05;6.47;;;;;;;16.83;62.82;99456.72;5105493;28;20130;-56
2021/06/10 06:14:08;;;;;;;9.32;6.97;;;;;;;16.76;63.27;99465.53;5106091;28;20123;-55
2021/06/10 06:16:39;;;;;;;11.77;7.13;;;;;;;16.84;62.17;99469.22;5105280;28;20370;-49
2021/06/10 06:19:06;;;;;;;11.02;6.45;;;;;;;16.78;61.68;99468.91;5104654;28;20044;-59
2021/06/10 06:21:33;;;;;;;5.88;4.65;;;;;;;16.20;63.10;99420.41;5107191;28;20458;-58
2021/06/10 06:23:59;;;;;;;9.25;5.57;;;;;;;16.44;63.50;99480.81;5107477;28;20028;-57
2021/06/10 06:26:25;;;;;;;11.40;5.15;;;;;;;16.39;64.07;99468.81;5107603;28;20091;-62
2021/06/10 06:28:53;;;;;;;9.88;6.30;;;;;;;16.47;63.80;99479.59;5107359;28;20027;-59
2021/06/10 06:31:20;;;;;;;7.35;5.38;;;;;;;16.28;64.46;99456.50;5108079;28;20031;-56
2021/06/10 06:33:45;;;;;;;10.32;5.30;;;;;;;16.51;64.18;99478.25;5109689;28;20139;-59
2021/06/10 06:36:11;;;;;;;9.02;5.07;;;;;;;16.47;64.05;99469.66;5107748;28;20567;-54
2021/06/10 06:38:36;;;;;;;6.03;4.75;;;;;;;16.38;63.17;99448.22;5109280;28;20039;-59
2021/06/10 06:41:02;;;;;;;7.47;5.78;;;;;;;16.45;63.59;99474.41;5112070;28;20035;-59
2021/06/10 06:43:30;;;;;;;8.02;4.43;;;;;;;16.35;64.08;99481.81;5094192;28;20032;-58
2021/06/10 06:45:56;;;;;;;12.55;8.20;;;;;;;16.29;64.29;99493.31;5111386;28;20090;-60
2021/06/10 06:48:22;;;;;;;12.05;7.38;;;;;;;15.85;64.06;99414.28;5111685;28;20486;-59
2021/06/10 06:50:47;;;;;;;6.07;3.72;;;;;;;16.17;64.12;99490.97;5109028;28;20447;-56
2021/06/10 06:53:13;;;;;;;4.85;3.85;;;;;;;16.00;64.85;99487.38;5111175;28;20407;-56
2021/06/10 06:55:38;;;;;;;7.10;4.75;;;;;;;15.98;65.22;99491.28;5111152;28;20081;-56
2021/06/10 06:58:04;;;;;;;5.60;4.68;;;;;;;15.98;64.78;99477.78;5109972;28;20039;-57
2021/06/10 07:00:29;;;;;;;6.63;4.80;;;;;;;15.96;64.30;99482.50;5111929;28;20542;-56
2021/06/10 07:02:55;;;;;;;7.93;4.75;;;;;;;15.75;63.77;99463.03;5112342;28;20496;-60
2021/06/10 07:05:20;;;;;;;8.18;5.88;;;;;;;15.81;65.13;99502.00;5111989;27;20067;-58
2021/06/10 07:07:46;;;;;;;4.95;4.28;;;;;;;15.82;64.97;99517.19;5107474;28;20607;-59
2021/06/10 07:10:12;;;;;;;7.10;3.92;;;;;;;15.84;65.00;99519.75;5098328;28;20050;-59
2021/06/10 07:12:38;;;;;;;6.63;4.55;;;;;;;15.83;64.59;99537.78;5106872;28;20557;-59
2021/06/10 07:15:04;;;;;;;6.20;5.10;;;;;;;15.63;65.52;99529.97;5109028;28;20039;-58
2021/06/10 07:17:30;;;;;;;6.95;4.95;;;;;;;15.55;65.54;99524.56;5111472;28;20035;-59
2021/06/10 07:19:57;;;;;;;7.60;5.90;;;;;;;15.44;66.18;99533.78;5104044;28;20036;-59
2021/06/10 07:22:23;;;;;;;12.27;8.05;;;;;;;15.55;66.12;99531.78;5108072;28;20067;-60
2021/06/10 07:24:49;;;;;;;12.45;7.13;;;;;;;15.59;66.24;99535.88;5110037;28;20540;-60
2021/06/10 07:27:18;;;;;;;9.40;5.93;;;;;;;15.65;65.84;99536.03;5109640;28;20494;-60
2021/06/10 07:29:45;;;;;;;11.77;7.40;;;;;;;15.49;66.59;99534.13;5105307;28;20179;-61
2021/06/10 07:32:11;;;;;;;12.45;7.97;;;;;;;15.43;67.00;99515.91;5104591;28;20578;-59
2021/06/10 07:34:38;;;;;;;8.82;6.63;;;;;;;15.65;66.29;99530.66;5109222;28;20031;-60
2021/06/10 07:37:07;;;;;;;8.15;6.47;;;;;;;15.77;66.47;99538.44;5110307;28;20110;-58
2021/06/10 07:39:34;;;;;;;10.35;6.30;;;;;;;15.64;66.80;99564.03;5110560;28;20042;-59
2021/06/10 07:42:00;;;;;;;11.75;7.70;;;;;;;15.66;66.36;99553.09;5096995;28;20036;-61
2021/06/10 07:44:27;;;;;;;7.45;6.57;;;;;;;15.55;67.13;99548.84;5110863;28;20040;-59
2021/06/10 07:46:53;;;;;;;11.43;7.85;;;;;;;15.58;67.07;99537.72;5111246;28;20035;-59
2021/06/10 07:49:18;;;;;;;14.82;7.68;;;;;;;15.59;67.20;99542.09;5109903;28;20035;-56
2021/06/10 07:51:44;;;;;;;11.65;7.80;;;;;;;15.61;67.43;99555.44;5106812;28;20043;-58
2021/06/10 07:54:09;;;;;;;11.32;7.57;;;;;;;15.70;67.07;99557.16;5110331;28;20019;-53
2021/06/10 07:56:35;;;;;;;12.10;6.78;;;;;;;15.65;67.70;99554.94;5110810;28;20032;-59
2021/06/10 07:59:01;;;;;;;11.27;7.50;;;;;;;15.72;67.24;99535.41;5109523;28;20179;-58
2021/06/10 08:01:26;;;;;;;10.93;7.38;;;;;;;15.91;66.31;99540.56;5102688;28;20097;-61
2021/06/10 08:03:52;;;;;;;15.02;8.40;;;;;;;15.75;66.98;99551.28;5110064;28;20126;-58
2021/06/10 08:06:17;;;;;;;14.30;7.15;;;;;;;15.35;66.54;99467.34;5110706;28;20050;-56
2021/06/10 08:08:43;;;;;;;9.98;7.30;;;;;;;15.22;67.30;99473.19;5109612;28;20071;-58
2021/06/10 08:11:10;;;;;;;11.77;7.05;;;;;;;15.44;68.10;99552.69;5108943;28;20420;-56
2021/06/10 08:13:36;;;;;;;10.27;6.93;;;;;;;15.56;67.41;99560.50;5108345;28;20406;-56
2021/06/10 08:16:04;;;;;;;10.40;7.60;;;;;;;15.38;68.04;99539.00;5108137;28;20035;-56
2021/06/10 08:18:29;;;;;;;12.35;8.40;;;;;;;15.36;68.78;99537.28;5108372;28;20092;-61
2021/06/10 08:20:59;;;;;;;13.35;8.23;;;;;;;15.36;69.51;99552.66;5109856;28;20047;-58
2021/06/10 08:23:26;;;;;;;13.40;9.38;;;;;;;15.43;68.85;99550.13;5095310;28;20059;-59
2021/06/10 08:25:54;;;;;;;13.85;7.90;;;;;;;15.50;68.48;99553.88;5104735;28;20036;-59
2021/06/10 08:28:19;;;;;;;8.95;5.38;;;;;;;15.66;68.23;99553.09;5108523;28;20023;-60
2021/06/10 08:30:45;;;;;;;11.13;6.70;;;;;;;15.29;68.65;99528.19;5109756;28;20047;-59
2021/06/10 08:33:11;;;;;;;15.93;7.60;;;;;;;15.48;68.52;99547.81;5109199;28;20034;-58
2021/06/10 08:35:37;;;;;;;10.85;6.47;;;;;;;15.51;69.23;99560.97;5109036;28;20041;-59
2021/06/10 08:38:06;;;;;;;10.23;6.53;;;;;;;15.54;69.30;99559.78;5109745;28;20027;-58
2021/06/10 08:40:32;;;;;;;12.63;7.30;;;;;;;15.60;68.70;99551.06;5108276;28;20035;-59
2021/06/10 08:42:58;;;;;;;10.95;6.60;;;;;;;15.73;68.23;99562.22;5104243;28;20089;-59
2021/06/10 08:45:27;;;;;;;11.63;7.03;;;;;;;15.73;67.95;99559.53;5107346;28;20047;-60
2021/06/10 08:47:53;;;;;;;13.02;6.68;;;;;;;15.75;67.41;99562.91;5109475;28;20040;-58
2021/06/10 08:50:23;;;;;;;11.15;6.40;;;;;;;15.58;68.63;99540.41;5109601;28;20126;-57
2021/06/10 08:52:51;;;;;;;17.38;9.77;;;;;;;15.59;69.15;99552.91;5108277;28;20360;-60
2021/06/10 08:55:18;;;;;;;9.45;5.80;;;;;;;15.59;69.37;99552.06;5107167;28;20096;-58
2021/06/10 08:57:43;;;;;;;9.60;6.93;;;;;;;15.76;68.53;99547.56;5109451;28;20038;-59
2021/06/10 09:00:09;;;;;;;10.38;7.55;;;;;;;15.79;68.43;99552.63;5109171;28;20035;-60
2021/06/10 09:02:36;;;;;;;8.52;6.93;;;;;;;15.71;68.88;99561.53;5109334;28;20053;-59
2021/06/10 09:05:07;;;;;;;14.65;8.48;;;;;;;15.70;68.89;99548.22;5095708;28;20048;-59
2021/06/10 09:07:36;;;;;;;12.55;7.97;;;;;;;15.80;69.49;99548.91;5108252;28;20035;-57
2021/06/10 09:10:07;;;;;;;11.43;6.95;;;;;;;15.92;68.75;99553.03;5108731;28;20452;-60
2021/06/10 09:12:51;;;;;;;10.07;7.80;;;;;;;16.02;68.57;99549.34;5109663;28;20052;-59
2021/06/10 09:15:18;;;;;;;18.63;6.32;;;;;;;15.83;69.08;99531.56;5097560;28;20072;-59
2021/06/10 09:17:44;;;;;;;12.68;7.82;;;;;;;16.06;68.03;99542.59;5092141;28;20109;-57
2021/06/10 09:20:18;;;;;;;7.65;6.40;;;;;;;15.97;69.75;99554.41;5109258;28;20064;-57
2021/06/10 09:22:45;;;;;;;10.10;7.05;;;;;;;15.89;69.95;99550.66;5109085;28;20040;-58
2021/06/10 09:25:15;;;;;;;12.70;7.80;;;;;;;15.64;68.87;99477.69;5102560;28;20036;-59
2021/06/10 09:27:52;;;;;;;8.70;7.40;;;;;;;15.98;69.55;99545.28;5107317;28;20036;-61
2021/06/10 09:30:31;;;;;;;10.32;7.30;;;;;;;15.98;69.39;99556.09;5108959;28;20037;-57
2021/06/10 09:32:59;;;;;;;9.68;6.25;;;;;;;16.06;68.35;99558.78;5109631;28;20070;-56
2021/06/10 09:35:30;;;;;;;15.07;9.13;;;;;;;15.91;68.52;99554.06;5107768;28;20034;-58
2021/06/10 09:37:58;;;;;;;14.43;9.10;;;;;;;15.95;68.17;99545.63;5107486;28;20066;-58
2021/06/10 09:40:24;;;;;;;21.45;11.32;;;;;;;15.91;68.86;99551.34;5107173;28;20510;-57
2021/06/10 09:42:50;;;;;;;15.77;8.32;;;;;;;16.04;67.76;99555.41;5109547;28;20120;-58
2021/06/10 09:45:24;;;;;;;13.48;8.82;;;;;;;15.87;69.35;99566.13;5109043;28;20028;-58
2021/06/10 09:47:53;;;;;;;8.88;6.53;;;;;;;15.91;68.82;99561.28;5107873;28;20039;-58
2021/06/10 09:50:29;;;;;;;13.90;7.22;;;;;;;16.18;67.72;99567.41;5097518;28;20122;-60
2021/06/10 09:53:16;;;;;;;15.93;12.82;;;;;;;15.59;69.55;99512.41;5104355;28;20047;-60
2021/06/10 09:55:48;;;;;;;11.90;7.22;;;;;;;15.52;69.32;99507.84;5108446;28;20105;-59
2021/06/10 09:58:14;;;;;;;8.98;6.35;;;;;;;15.91;69.20;99567.56;5108572;28;20360;-60
2021/06/10 10:00:49;;;;;;;10.50;6.78;;;;;;;16.12;68.58;99562.69;5105667;28;20042;-59
2021/06/10 10:03:24;;;;;;;11.70;6.82;;;;;;;16.12;68.59;99568.91;5108404;28;20043;-54
2021/06/10 10:05:51;;;;;;;11.15;7.43;;;;;;;15.85;69.49;99549.25;5108123;28;20059;-54
2021/06/10 10:08:18;;;;;;;12.18;8.77;;;;;;;15.82;70.15;99573.88;5109974;28;20114;-56
2021/06/10 10:10:44;;;;;;;16.75;11.88;;;;;;;15.79;70.85;99568.81;5106085;28;20436;-49
2021/06/10 10:13:16;;;;;;;9.80;7.40;;;;;;;15.86;71.10;99569.00;5112604;28;20039;-56
2021/06/10 10:15:43;;;;;;;11.13;7.78;;;;;;;15.90;70.50;99555.03;5112297;28;20027;-54
2021/06/10 10:18:10;;;;;;;11.82;8.00;;;;;;;15.82;70.50;99546.91;5111848;28;20474;-59
2021/06/10 10:20:37;;;;;;;10.68;7.38;;;;;;;15.53;70.56;99501.44;5110563;28;20118;-57
2021/06/10 10:23:04;;;;;;;14.73;10.20;;;;;;;15.70;71.02;99548.22;5095838;28;20108;-58
2021/06/10 10:25:29;;;;;;;11.68;8.77;;;;;;;15.90;70.53;99555.03;5112348;28;20470;-61
2021/06/10 10:27:55;;;;;;;13.73;8.75;;;;;;;15.34;70.71;99471.88;5104812;28;20051;-59
2021/06/10 10:30:21;;;;;;;13.32;8.15;;;;;;;15.78;71.63;99546.38;5101228;28;20042;-60
2021/06/10 10:32:47;;;;;;;11.25;8.40;;;;;;;15.98;71.17;99547.97;5109843;28;20055;-59
2021/06/10 10:35:16;;;;;;;10.88;8.13;;;;;;;15.95;71.79;99556.41;5121748;27;20512;-57
2021/06/10 10:37:41;;;;;;;13.60;9.15;;;;;;;15.89;72.11;99556.03;5110243;28;20031;-58
2021/06/10 10:40:15;;;;;;;12.55;7.53;;;;;;;16.11;71.57;99559.13;5111704;28;20549;-63
2021/06/10 10:42:41;;;;;;;11.52;7.47;;;;;;;16.20;70.16;99539.25;5110007;28;20137;-59
2021/06/10 10:45:20;;;;;;;12.95;9.10;;;;;;;15.86;70.71;99499.66;5102819;28;20109;-58
2021/06/10 10:47:56;;;;;;;14.52;7.57;;;;;;;16.14;71.07;99545.28;5101191;28;20035;-59
2021/06/10 10:50:35;;;;;;;11.48;7.60;;;;;;;16.28;70.89;99561.84;5103168;28;20092;-59
2021/06/10 10:53:01;;;;;;;13.07;8.95;;;;;;;16.18;71.30;99562.88;5097395;28;20039;-61
2021/06/10 10:55:31;;;;;;;12.02;8.32;;;;;;;16.20;70.95;99558.16;5100682;28;20035;-61
2021/06/10 10:58:03;;;;;;;13.10;8.85;;;;;;;16.32;71.42;99552.41;5095620;28;20259;-60
2021/06/10 11:00:47;;;;;;;11.52;8.73;;;;;;;16.51;70.82;99567.41;5095124;28;20032;-60
2021/06/10 11:03:23;;;;;;;13.88;10.48;;;;;;;16.32;71.58;99547.84;5100084;28;20035;-60
2021/06/10 11:05:50;;;;;;;16.77;9.75;;;;;;;16.35;71.71;99570.97;5091345;28;20039;-61
2021/06/10 11:08:16;;;;;;;21.08;11.52;;;;;;;15.90;71.94;99484.00;5105883;28;20032;-61
2021/06/10 11:10:50;;;;;;;13.98;9.23;;;;;;;16.57;72.00;99566.78;5110655;28;20442;-63
2021/06/10 11:13:21;;;;;;;13.27;9.40;;;;;;;16.71;71.50;99575.19;5107379;28;20142;-62
2021/06/10 11:15:51;;;;;;;14.20;8.43;;;;;;;16.75;70.52;99571.97;5096238;28;20043;-60
2021/06/10 11:18:41;;;;;;;13.88;8.90;;;;;;;16.89;69.66;99570.44;5092909;28;20036;-63
2021/06/10 11:21:12;;;;;;;14.68;8.65;;;;;;;16.72;68.89;99556.13;5099891;28;20059;-61
2021/06/10 11:23:37;;;;;;;12.55;8.30;;;;;;;16.31;69.68;99512.88;5110926;28;20051;-60
2021/06/10 11:26:14;;;;;;;12.00;9.10;;;;;;;16.57;70.45;99564.06;5111805;28;20164;-61
2021/06/10 11:28:40;;;;;;;13.50;9.35;;;;;;;16.04;69.96;99498.69;5110468;28;20054;-59
2021/06/10 11:31:16;;;;;;;11.80;8.88;;;;;;;16.53;70.53;99567.28;5111087;28;20044;-53